METAR v bližini

 

LJMB - Maribor Edvarda Rusjana, Slovenia
Oddaljenost od postaje: SV 30,9km
Podatki zajeti: 17/09/2019 06:30
Pretežno oblačno
Pretežno oblačno
 Veter iz smeri spremenljiv
Veter: spremenljiv 4 km/h
Temperatura: 18°C
Rosišče: 16°C
Vlažnost: 88%
Tlak: 1015 hPa
Oblačnost: Pretežno oblačno
Vidljivost: 10 km
Podrobnosti o oblakih: Rahlo oblačno 1372 m
Delno oblačno 1524 m
Pretežno oblačno 3048 m
2019/09/17 04:30 LJMB 170430Z VRB02KT 9999 FEW045 SCT050 BKN100 18/16 Q1015
LJLJ - Ljubljana Brnik, Slovenia
Oddaljenost od postaje: S 103km
Podatki zajeti: 17/09/2019 06:30
Megla, Pretežno oblačno
Megla, Pretežno oblačno
 Veter iz smeri spremenljiv
Veter: spremenljiv 4 km/h
Temperatura: 14°C
Rosišče: 14°C
Vlažnost: 100%
Tlak: 1016 hPa
Stanje: Megla
Oblačnost: Pretežno oblačno
Vidljivost: 0 km
Podrobnosti o oblakih: Pretežno oblačno 30 m
2019/09/17 04:30 LJLJ 170430Z VRB02KT 0400 R30/0600N FG BKN001 14/14 Q1016 NOSIG
 
LJPZ - Portorož, Slovenia
Oddaljenost od postaje: SSZ 224km
Podatki zajeti: 17/09/2019 06:30
Delno oblačno
Delno oblačno
 Veter iz smeri VJV
Veter: VJV 15 km/h
Temperatura: 17°C
Rosišče: 16°C
Vlažnost: 94%
Tlak: 1015 hPa
Oblačnost: Delno oblačno
Vidljivost: 10 km
Podrobnosti o oblakih: Delno oblačno 1494 m
2019/09/17 04:30 LJPZ 170430Z 12008KT 9999 SCT049 17/16 Q1015
LJCE - Cerklje, Slovenia
Oddaljenost od postaje: VSV 83,9km
Podatki zajeti: 17/09/2019 06:30
Jasno
Jasno
 Veter iz smeri spremenljiv
Veter: spremenljiv 4 km/h
Temperatura: 16°C
Rosišče: 15°C
Vlažnost: 94%
Tlak: 1015 hPa
Stanje: Jasno
Vidljivost: večja od 10 km
2019/09/17 04:30 LJCE 170430Z VRB02KT CAVOK 16/15 Q1015
 
LOWG - Graz, Austria
Oddaljenost od postaje: SSZ 99,6km
Podatki zajeti: 17/09/2019 06:50
Jasno
Jasno
 Veter iz smeri SSV
Veter: SSV 6 km/h
Temperatura: 17°C
Rosišče: 16°C
Vlažnost: 94%
Tlak: 1015 hPa
Stanje: Jasno
Vidljivost: večja od 10 km
2019/09/17 04:50 LOWG 170450Z 02003KT CAVOK 17/16 Q1015 NOSIG
LOWK - Klagenfurt, Austria
Oddaljenost od postaje: SZ 121km
Podatki zajeti: 17/09/2019 06:50
Pretežno oblačno
Pretežno oblačno
 Veter iz smeri spremenljiv
Veter: spremenljiv 2 km/h
Temperatura: 16°C
Rosišče: 14°C
Vlažnost: 88%
Tlak: 1016 hPa
Oblačnost: Pretežno oblačno
Vidljivost: 10 km
Podrobnosti o oblakih: Rahlo oblačno 183 m
Delno oblačno 2134 m
Pretežno oblačno 4877 m
2019/09/17 04:50 LOWK 170450Z AUTO VRB01KT 9999 FEW006 SCT070 BKN160 16/14 Q1016 TEMPO BKN006
 
LDRI - Rijeka, Croatia
Oddaljenost od postaje: SZ 243km
Podatki zajeti: 17/09/2019 06:30
Jasno
Jasno
 Veter iz smeri VJV
Veter: VJV 2 km/h
Temperatura: 17°C
Rosišče: 15°C
Vlažnost: 88%
Tlak: 1015 hPa
Stanje: Jasno
Vidljivost: večja od 10 km
2019/09/17 04:30 LDRI 170430Z 11001KT CAVOK 17/15 Q1015
LIPQ - Ronchi, Italy
Oddaljenost od postaje: VJV 224km
Podatki zajeti: 17/09/2019 06:50
Pretežno oblačno
Pretežno oblačno
 Veter iz smeri V
Veter: V 4 km/h
Temperatura: 19°C
Rosišče: 18°C
Vlažnost: 94%
Tlak: 1015 hPa
Oblačnost: Pretežno oblačno
Vidljivost: 10 km
Podrobnosti o oblakih: Pretežno oblačno 1524 m
2019/09/17 04:50 LIPQ 170450Z 09002KT 9999 BKN050 19/18 Q1015
 
LDZA - Zagreb, Croatia
Oddaljenost od postaje: JJV 143km
Podatki zajeti: 17/09/2019 06:30
Megla v pasovih, Delno oblačno
Megla v pasovih, Delno oblačno
 Veter iz smeri calm
Veter: Mirno
Temperatura: 15°C
Rosišče: 14°C
Vlažnost: 94%
Tlak: 1015 hPa
Stanje: Patches of Fog
Oblačnost: Delno oblačno
Vidljivost: 1 km
2019/09/17 04:30 LDZA 170430Z 00000KT 0800 R05/P2000N R23/0650N BCFG NSC 15/14 Q1015 TEMPO 0500 FG
LIVT - Trieste, Italy
Oddaljenost od postaje: ZSZ 250km
Podatki zajeti: 17/09/2019 05:55
Jasno
Jasno
 Veter iz smeri SSV
Veter: SSV 6 km/h
Temperatura: 20°C
Rosišče: 18°C
Vlažnost: 88%
Tlak: 1015 hPa
Stanje: Jasno
Vidljivost: večja od 10 km
2019/09/17 03:55 LIVT 170355Z 03003KT CAVOK 20/18 Q1015 RMK SKC QUK / QUL / VIS MAR 20 KM VIS MIN 9999
 
LIPA - Aviano, Italy
Oddaljenost od postaje: S 310km
Podatki zajeti: 17/09/2019 05:55
Pretežno oblačno
Pretežno oblačno
 Veter iz smeri SV
Veter: SV 7 km/h
Temperatura: 20°C
Rosišče: 19°C
Vlažnost: 94%
Tlak: 1015 hPa
Oblačnost: Pretežno oblačno
Vidljivost: 10 km
Podrobnosti o oblakih: Pretežno oblačno 2134 m
2019/09/17 03:55 LIPA 170355Z 05004KT 9999 BKN070 20/19 Q1015 RMK BKN VIS MIN 9999 WIND THR05 /////KT WIND THR23 /////KT A2998 BLU
LDPL - Pula, Croatia
Oddaljenost od postaje: SSV 304km
Podatki zajeti: 17/09/2019 06:30
Megla po nižinah, Delno oblačno
Megla po nižinah, Delno oblačno
 Veter iz smeri V
Veter: V 7 km/h
Temperatura: 18°C
Rosišče: 17°C
Vlažnost: 94%
Tlak: 1015 hPa
Stanje: Megla po nižinah
Oblačnost: Delno oblačno
Vidljivost: 10 km
2019/09/17 04:30 LDPL 170430Z 08004KT 050V110 9999 MIFG NSC 18/17 Q1015 NOSIG